EGNS Airport Information

Runway Information
Runway 03 Length 3934 ft width 151 ft
Elevation 23 ft Threshold 312 ft Heading 28
Runway 21 Length 3934 ft Width 151 ft
Elevation 52 ft Threshold ft Heading 208
Runway 08 Length 5751 ft width 151 ft
Elevation 29 ft Threshold 951 ft Heading 78
Runway 26 Length 5751 ft Width 151 ft
Elevation 32 ft Threshold 459 ft Heading 258
Runway 17 Length 2963 ft width 89 ft
Elevation ft Threshold ft Heading 175
Runway 35 Length 2963 ft Width 89 ft
Elevation 18 ft Threshold ft Heading 355
Airport Frequencies
Type APP Name RONALDSWAY Frequency 120.85 MHZ
Type ATIS Name ATIS Frequency 123.875 MHZ
Type TWR Name RONALDSWAY Frequency 118.9 MHZ
Airport Navaids
Type NDB Name Carnane Frequency 367 KHZ
Type VOR-DME Name Isle Of Man Frequency 112200 KHZ
Airport Weather Information & NOTAM
ADDS - METARS form results

(1108 UTC 19 August 2022)
Data provider http://aviationweather.gov/metar/data/
 
METAR text: EGNS 191050Z 23018KT 9999 FEW018 17/11 Q1012 NOSIG
Conditions at: EGNS (ISLE OF MAN/RONA, IM) observed 1050 UTC 19 August 2022
Temperature: 17.0°C (63°F)
Dewpoint: 11.0°C (52°F) [RH = 68%]
Pressure (altimeter): 29.88 inches Hg (1012.0 mb)
Winds: from the SW (230 degrees) at 21 MPH (18 knots; 9.3 m/s)
Visibility: 6 or more miles (10+ km)
Ceiling: at least 12,000 feet AGL
Clouds: few clouds at 1800 feet AGL
Weather: no significant weather observed at this time

METAR text: EGNS 191020Z 23019KT 9999 FEW018 17/12 Q1012 NOSIG
Conditions at: EGNS (ISLE OF MAN/RONA, IM) observed 1020 UTC 19 August 2022
Temperature: 17.0°C (63°F)
Dewpoint: 12.0°C (54°F) [RH = 72%]
Pressure (altimeter): 29.88 inches Hg (1012.0 mb)
Winds: from the SW (230 degrees) at 22 MPH (19 knots; 9.8 m/s)
Visibility: 6 or more miles (10+ km)
Ceiling: at least 12,000 feet AGL
Clouds: few clouds at 1800 feet AGL
Weather: no significant weather observed at this time

Forecast for: EGNS (ISLE OF MAN/RONA, IM)
Text: TAF EGNS 191100Z 1912/1921 23018KT 9999 FEW018 SCT035
Forecast period: 1200 to 2100 UTC 19 August 2022
Forecast type: FROM: standard forecast or significant change
Winds: from the SW (230 degrees) at 21 MPH (18 knots; 9.3 m/s)
Visibility: 6 or more miles (10+ km)
Ceiling: at least 12,000 feet AGL
Clouds: few clouds at 1800 feet AGL
scattered clouds at 3500 feet AGL
Weather: no significant weather forecast for this period